EHKD/DHR METAR and TAF weather

Enter ICAO airport designator
Station Type Date Time Source
EHKD METAR 2019/10/21 23:40 UTC NOAA

EHKD 212340Z AUTO 20008KT 7000 BR SCT006 BKN007 OVC009 12/11 Q1019 YLO


Station Type Date Time Source
EHKD Decoded METAR 2019/10/21 23:40 UTC NOAA

De Kooy, Netherlands (EHKD) 52-55N 004-47E 14M
Oct 21, 2019 - 07:40 PM EDT / 2019.10.21 2340 UTC
Wind: from the SSW (200 degrees) at 9 MPH (8 KT):0
Visibility: 4 mile(s):0
Sky conditions: overcast
Weather: mist
Temperature: 53 F (12 C)
Dew Point: 51 F (11 C)
Relative Humidity: 93%
Pressure (altimeter): 30.09 in. Hg (1019 hPa)
ob: EHKD 212340Z AUTO 20008KT 7000 BR SCT006 BKN007 OVC009 12/11 Q1019 YLO
cycle: 23

Station Type Date Time Source
EHKD TAF 2019/10/21 17:39 UTC NOAA

TAF TAF EHKD 211730Z 2117/2205 CNL

Example: see airport list